createdAt,value
2023-03-15T00:02:04.206Z,97095.69
2023-03-15T00:04:37.207Z,97099.47
2023-03-15T00:07:11.429Z,97101.25
2023-03-15T00:09:41.697Z,97101.53
2023-03-15T00:12:12.505Z,97106.69
2023-03-15T00:14:42.946Z,97110.97
2023-03-15T00:17:16.791Z,97112.13
2023-03-15T00:19:48.174Z,97120.56
2023-03-15T00:22:23.407Z,97119.81
2023-03-15T00:24:53.761Z,97121.47
2023-03-15T00:27:24.018Z,97133.69
2023-03-15T00:29:54.337Z,97131.94
2023-03-15T00:32:24.645Z,97134.06
2023-03-15T00:34:55.048Z,97135.91
2023-03-15T00:37:28.530Z,97144.31
2023-03-15T00:39:58.763Z,97135.91
2023-03-15T00:42:29.806Z,97139.00
2023-03-15T00:45:00.307Z,97144.91
2023-03-15T00:47:30.694Z,97142.28
2023-03-15T00:50:01.233Z,97147.25
2023-03-15T00:52:38.788Z,97143.06
2023-03-15T00:55:16.200Z,97139.75
2023-03-15T00:57:49.436Z,97146.00
2023-03-15T01:00:24.976Z,97141.34
2023-03-15T01:02:56.663Z,97150.34
2023-03-15T01:05:29.760Z,97150.44
2023-03-15T01:08:03.181Z,97150.47
2023-03-15T01:10:34.365Z,97153.84
2023-03-15T01:13:07.267Z,97152.88
2023-03-15T01:15:37.627Z,97152.00
2023-03-15T01:18:08.207Z,97155.78
2023-03-15T01:20:38.620Z,97152.44
2023-03-15T01:23:12.244Z,97152.25
2023-03-15T01:25:43.413Z,97152.06
2023-03-15T01:28:13.961Z,97152.88
2023-03-15T01:30:52.263Z,97154.22
2023-03-15T01:33:23.169Z,97152.25
2023-03-15T01:36:02.784Z,97161.06
2023-03-15T01:38:37.341Z,97157.50
2023-03-15T01:41:08.471Z,97161.19
2023-03-15T01:43:38.907Z,97163.97
2023-03-15T01:46:26.481Z,97164.78
2023-03-15T01:49:12.597Z,97174.66
2023-03-15T01:51:50.127Z,97178.84
2023-03-15T01:54:31.059Z,97173.47
2023-03-15T01:57:06.690Z,97174.38
2023-03-15T01:59:43.447Z,97176.31
2023-03-15T02:02:15.662Z,97178.25
2023-03-15T02:04:52.273Z,97180.19
2023-03-15T02:07:27.243Z,97183.88
2023-03-15T02:10:08.325Z,97193.16
2023-03-15T02:12:45.753Z,97184.38
2023-03-15T02:15:19.236Z,97186.09
2023-03-15T02:17:52.111Z,97186.88
2023-03-15T02:20:35.567Z,97187.31
2023-03-15T02:23:10.103Z,97184.91
2023-03-15T02:25:54.951Z,97187.31
2023-03-15T02:28:29.223Z,97191.19
2023-03-15T02:31:00.794Z,97194.06
2023-03-15T02:33:38.005Z,97200.72
2023-03-15T02:36:14.704Z,97195.78
2023-03-15T02:38:48.090Z,97203.50
2023-03-15T02:41:22.312Z,97205.72
2023-03-15T02:44:05.313Z,97210.19
2023-03-15T02:46:36.002Z,97212.97
2023-03-15T02:49:09.682Z,97210.09
2023-03-15T02:51:50.568Z,97215.88
2023-03-15T02:54:34.562Z,97215.84
2023-03-15T02:57:05.984Z,97219.97
2023-03-15T02:59:43.263Z,97228.41
2023-03-15T03:02:17.915Z,97234.53
2023-03-15T03:04:50.517Z,97236.03
2023-03-15T03:07:22.616Z,97244.84
2023-03-15T03:10:02.114Z,97241.34
2023-03-15T03:12:44.949Z,97243.94
2023-03-15T03:15:18.432Z,97254.09
2023-03-15T03:17:52.072Z,97261.53
2023-03-15T03:20:27.598Z,97272.72
2023-03-15T03:23:06.643Z,97265.53
2023-03-15T03:25:37.836Z,97263.66
2023-03-15T03:28:08.412Z,97271.50
2023-03-15T03:30:42.014Z,97281.00
2023-03-15T03:33:20.306Z,97282.38
2023-03-15T03:35:54.447Z,97280.94
2023-03-15T03:38:28.270Z,97284.19
2023-03-15T03:41:03.451Z,97283.59
2023-03-15T03:43:35.731Z,97288.06
2023-03-15T03:46:13.745Z,97282.88
2023-03-15T03:48:51.066Z,97290.38
2023-03-15T03:51:29.579Z,97293.63
2023-03-15T03:53:59.962Z,97303.59
2023-03-15T03:56:30.485Z,97303.00
2023-03-15T03:59:00.779Z,97307.78
2023-03-15T04:01:45.615Z,97314.75
2023-03-15T04:04:16.278Z,97314.09
2023-03-15T04:06:50.784Z,97320.38
2023-03-15T04:09:27.732Z,97332.53
2023-03-15T04:11:58.437Z,97337.63
2023-03-15T04:14:29.198Z,97338.91
2023-03-15T04:17:03.924Z,97345.06
2023-03-15T04:19:37.745Z,97341.13
2023-03-15T04:22:09.580Z,97345.41
2023-03-15T04:24:50.758Z,97352.22
2023-03-15T04:27:44.626Z,97359.06
2023-03-15T04:30:38.055Z,97357.09
2023-03-15T04:33:24.630Z,97359.81
2023-03-15T04:36:18.246Z,97365.09
2023-03-15T04:39:08.302Z,97370.53
2023-03-15T04:41:51.025Z,97369.00
2023-03-15T04:44:44.184Z,97372.91
2023-03-15T04:47:37.286Z,97374.31
2023-03-15T04:50:28.780Z,97380.38
2023-03-15T04:53:17.320Z,97385.16
2023-03-15T04:56:05.969Z,97389.16
2023-03-15T04:59:00.297Z,97389.22
2023-03-15T05:01:50.746Z,97389.28
2023-03-15T05:04:39.580Z,97397.56
2023-03-15T05:07:23.328Z,97403.53
2023-03-15T05:09:53.678Z,97409.81
2023-03-15T05:12:43.024Z,97420.72
2023-03-15T05:15:35.853Z,97423.97
2023-03-15T05:18:27.671Z,97431.81
2023-03-15T05:21:29.923Z,97437.31
2023-03-15T05:27:39.115Z,97442.00
2023-03-15T05:30:36.426Z,97447.41
2023-03-15T05:33:17.114Z,97450.41
2023-03-15T05:36:08.790Z,97453.47
2023-03-15T05:38:59.352Z,97450.84
2023-03-15T05:41:50.893Z,97454.34
2023-03-15T05:44:32.615Z,97460.63
2023-03-15T05:47:21.682Z,97463.50
2023-03-15T05:50:14.212Z,97465.03
2023-03-15T05:52:57.144Z,97470.53
2023-03-15T05:55:40.104Z,97479.72
2023-03-15T05:58:36.053Z,97481.41
2023-03-15T06:01:26.918Z,97475.81
2023-03-15T06:04:08.349Z,97472.88
2023-03-15T06:06:40.061Z,97485.63
2023-03-15T06:09:12.592Z,97480.25
2023-03-15T06:11:43.265Z,97486.31
2023-03-15T06:14:18.875Z,97498.78
2023-03-15T06:16:59.410Z,97509.63
2023-03-15T06:19:32.194Z,97514.25
2023-03-15T06:22:03.773Z,97513.84
2023-03-15T06:24:41.433Z,97512.97
2023-03-15T06:27:12.220Z,97515.53
2023-03-15T06:29:45.434Z,97518.16
2023-03-15T06:32:15.896Z,97512.63
2023-03-15T06:34:46.479Z,97522.28
2023-03-15T06:37:29.072Z,97527.25
2023-03-15T06:40:06.073Z,97522.91
2023-03-15T06:42:36.924Z,97519.88
2023-03-15T06:45:13.227Z,97525.69
2023-03-15T06:47:43.525Z,97526.75
2023-03-15T06:50:15.099Z,97536.28
2023-03-15T06:52:45.570Z,97527.53
2023-03-15T06:55:18.382Z,97535.34
2023-03-15T06:57:49.244Z,97538.19
2023-03-15T07:00:23.469Z,97533.47
2023-03-15T07:02:53.853Z,97529.31
2023-03-15T07:05:24.418Z,97530.63
2023-03-15T07:07:54.844Z,97522.69
2023-03-15T07:10:25.110Z,97531.91
2023-03-15T07:12:55.472Z,97533.03
2023-03-15T07:15:28.549Z,97543.75
2023-03-15T07:17:58.843Z,97540.22
2023-03-15T07:20:29.171Z,97548.59
2023-03-15T07:22:59.502Z,97552.44
2023-03-15T07:25:29.863Z,97555.41
2023-03-15T07:28:00.133Z,97553.44
2023-03-15T07:30:33.190Z,97552.56
2023-03-15T07:33:03.469Z,97553.66
2023-03-15T07:35:33.783Z,97560.75
2023-03-15T07:38:06.660Z,97547.69
2023-03-15T07:40:36.959Z,97548.91
2023-03-15T07:43:07.289Z,97559.38
2023-03-15T07:45:40.327Z,97567.44
2023-03-15T07:48:11.288Z,97568.50
2023-03-15T07:50:41.790Z,97572.13
2023-03-15T07:53:12.263Z,97585.06
2023-03-15T07:55:42.720Z,97576.69
2023-03-15T07:58:13.063Z,97586.97
2023-03-15T08:00:46.026Z,97584.25
2023-03-15T08:03:16.356Z,97582.28
2023-03-15T08:05:46.668Z,97580.44
2023-03-15T08:08:16.937Z,97579.00
2023-03-15T08:10:48.308Z,97577.94
2023-03-15T08:13:18.613Z,97580.66
2023-03-15T08:15:51.612Z,97597.06
2023-03-15T08:18:21.902Z,97589.72
2023-03-15T08:20:52.348Z,97597.44
2023-03-15T08:23:22.643Z,97602.88
2023-03-15T08:25:53.190Z,97601.16
2023-03-15T08:28:24.642Z,97615.41
2023-03-15T08:30:57.546Z,97623.47
2023-03-15T08:33:30.270Z,97616.50
2023-03-15T08:36:01.277Z,97626.75
2023-03-15T08:38:31.663Z,97626.31
2023-03-15T08:41:02.608Z,97626.56
2023-03-15T08:43:32.978Z,97633.94
2023-03-15T08:46:05.990Z,97627.88
2023-03-15T08:48:36.265Z,97631.03
2023-03-15T08:51:07.375Z,97629.75
2023-03-15T08:53:38.510Z,97644.56
2023-03-15T08:56:09.449Z,97642.34
2023-03-15T08:58:39.992Z,97646.78
2023-03-15T09:01:15.185Z,97637.03
2023-03-15T09:03:45.856Z,97643.66
2023-03-15T09:06:16.197Z,97649.25
2023-03-15T09:08:46.607Z,97650.28
2023-03-15T09:11:16.925Z,97653.69
2023-03-15T09:13:47.184Z,97649.09
2023-03-15T09:16:20.232Z,97653.03
2023-03-15T09:18:50.753Z,97656.97
2023-03-15T09:21:21.053Z,97659.19
2023-03-15T09:23:51.453Z,97651.59
2023-03-15T09:26:23.420Z,97659.84
2023-03-15T09:28:53.744Z,97659.66
2023-03-15T09:31:27.561Z,97671.41
2023-03-15T09:33:58.727Z,97672.19
2023-03-15T09:36:29.174Z,97674.72
2023-03-15T09:38:59.578Z,97674.59
2023-03-15T09:41:46.050Z,97674.59
2023-03-15T09:44:31.290Z,97664.66
2023-03-15T09:47:19.250Z,97683.75
2023-03-15T09:49:55.457Z,97685.41
2023-03-15T09:52:36.717Z,97679.38
2023-03-15T09:55:16.218Z,97678.91
2023-03-15T09:57:53.546Z,97687.31
2023-03-15T10:00:28.933Z,97688.28
2023-03-15T10:03:07.375Z,97680.72
2023-03-15T10:05:44.645Z,97688.84
2023-03-15T10:08:17.672Z,97692.59
2023-03-15T10:10:55.075Z,97691.34
2023-03-15T10:13:42.493Z,97687.53
2023-03-15T10:16:31.970Z,97690.53
2023-03-15T10:19:17.500Z,97690.66
2023-03-15T10:21:58.671Z,97687.97
2023-03-15T10:24:39.080Z,97692.66
2023-03-15T10:27:20.913Z,97685.09
2023-03-15T10:29:53.751Z,97692.56
2023-03-15T10:32:30.410Z,97684.16
2023-03-15T10:35:12.247Z,97686.84
2023-03-15T10:37:42.707Z,97687.94
2023-03-15T10:40:16.475Z,97687.59
2023-03-15T10:42:49.079Z,97693.75
2023-03-15T10:45:25.749Z,97682.50
2023-03-15T10:48:00.697Z,97677.00
2023-03-15T10:50:36.205Z,97690.91
2023-03-15T10:53:14.214Z,97689.25
2023-03-15T10:55:47.712Z,97689.50
2023-03-15T10:58:31.568Z,97692.53
2023-03-15T11:01:09.716Z,97690.50
2023-03-15T11:03:41.077Z,97691.53
2023-03-15T11:06:29.856Z,97703.72
2023-03-15T11:09:14.664Z,97691.03
2023-03-15T11:12:03.931Z,97702.47
2023-03-15T11:14:40.918Z,97698.09
2023-03-15T11:17:23.488Z,97693.28
2023-03-15T11:19:59.978Z,97692.50
2023-03-15T11:22:33.226Z,97687.94
2023-03-15T11:25:03.656Z,97694.53
2023-03-15T11:27:34.709Z,97689.25
2023-03-15T11:30:05.534Z,97693.25
2023-03-15T11:32:36.564Z,97686.25
2023-03-15T11:35:13.449Z,97687.09
2023-03-15T11:37:55.185Z,97693.16
2023-03-15T11:40:36.557Z,97692.19
2023-03-15T11:43:13.660Z,97688.81
2023-03-15T11:45:49.548Z,97687.56
2023-03-15T11:48:44.641Z,97690.66
2023-03-15T11:51:16.997Z,97693.34
2023-03-15T11:53:58.534Z,97685.03
2023-03-15T11:56:32.312Z,97678.56
2023-03-15T11:59:11.332Z,97675.16
2023-03-15T12:01:49.804Z,97675.00
2023-03-15T12:04:40.767Z,97664.47
2023-03-15T12:08:22.042Z,97675.19
2023-03-15T12:10:55.862Z,97664.88
2023-03-15T12:13:29.801Z,97658.09
2023-03-15T12:16:00.963Z,97671.19
2023-03-15T12:18:43.112Z,97663.50
2023-03-15T12:21:26.870Z,97661.28
2023-03-15T12:24:05.318Z,97654.13
2023-03-15T12:26:44.918Z,97646.84
2023-03-15T12:29:24.136Z,97652.09
2023-03-15T12:32:00.167Z,97659.69
2023-03-15T12:34:40.075Z,97659.59
2023-03-15T12:37:17.183Z,97656.84
2023-03-15T12:39:52.182Z,97661.00
2023-03-15T12:43:13.374Z,97671.41
2023-03-15T12:45:52.586Z,97675.53
2023-03-15T12:48:26.895Z,97677.25
2023-03-15T12:51:01.408Z,97678.56
2023-03-15T12:53:43.942Z,97689.22
2023-03-15T12:56:44.503Z,97690.88
2023-03-15T12:59:41.334Z,97704.34
2023-03-15T13:02:43.288Z,97709.94
2023-03-15T13:05:26.668Z,97703.13
2023-03-15T13:08:07.243Z,97713.94
2023-03-15T13:11:14.019Z,97720.34
2023-03-15T13:14:10.793Z,97740.50
2023-03-15T13:16:47.855Z,97748.50
2023-03-15T13:19:25.784Z,97754.22
2023-03-15T13:22:08.905Z,97751.25
2023-03-15T13:24:52.468Z,97750.31
2023-03-15T13:27:45.643Z,97761.78
2023-03-15T13:30:36.543Z,97769.56
2023-03-15T13:33:21.138Z,97763.47
2023-03-15T13:36:01.217Z,97757.13
2023-03-15T13:38:35.692Z,97765.00
2023-03-15T13:41:17.730Z,97772.06
2023-03-15T13:43:48.916Z,97770.13
2023-03-15T13:46:22.920Z,97756.50
2023-03-15T13:48:55.102Z,97761.88
2023-03-15T13:51:32.038Z,97767.69
2023-03-15T13:54:07.868Z,97772.75
2023-03-15T13:56:49.318Z,97769.78
2023-03-15T13:59:21.118Z,97763.34
2023-03-15T14:01:54.158Z,97765.28
2023-03-15T14:04:27.282Z,97754.84
2023-03-15T14:07:38.021Z,97754.38
2023-03-15T14:10:25.920Z,97746.66
2023-03-15T14:12:57.990Z,97744.31
2023-03-15T14:15:38.381Z,97755.19
2023-03-15T14:18:21.110Z,97752.72
2023-03-15T14:21:00.089Z,97758.03
2023-03-15T14:23:34.006Z,97758.28
2023-03-15T14:26:13.858Z,97749.00
2023-03-15T14:28:44.920Z,97759.44
2023-03-15T14:31:25.055Z,97756.56
2023-03-15T14:34:00.918Z,97757.91
2023-03-15T14:36:38.608Z,97761.41
2023-03-15T14:39:21.955Z,97756.06
2023-03-15T14:41:52.334Z,97759.91
2023-03-15T14:44:22.850Z,97759.59
2023-03-15T14:46:53.810Z,97757.94
2023-03-15T14:49:28.608Z,97761.38
2023-03-15T14:52:03.806Z,97760.66
2023-03-15T14:54:37.427Z,97762.28
2023-03-15T14:57:07.852Z,97764.16
2023-03-15T14:59:38.242Z,97760.66
2023-03-15T15:02:09.294Z,97772.91
2023-03-15T15:04:40.922Z,97773.50
2023-03-15T15:07:14.433Z,97768.50
2023-03-15T15:09:52.217Z,97762.38
2023-03-15T15:12:22.628Z,97773.59
2023-03-15T15:14:53.082Z,97762.88
2023-03-15T15:17:23.714Z,97773.06
2023-03-15T15:19:54.153Z,97781.25
2023-03-15T15:22:24.776Z,97773.28
2023-03-15T15:24:57.703Z,97779.53
2023-03-15T15:27:28.138Z,97781.38
2023-03-15T15:29:58.498Z,97776.16
2023-03-15T15:32:29.008Z,97788.97
2023-03-15T15:34:59.543Z,97782.94
2023-03-15T15:37:29.968Z,97785.81
2023-03-15T15:40:04.225Z,97801.88
2023-03-15T15:42:34.598Z,97795.16
2023-03-15T15:45:13.312Z,97790.69
2023-03-15T15:47:44.133Z,97801.75
2023-03-15T15:50:17.568Z,97810.38
2023-03-15T15:52:54.358Z,97814.38
2023-03-15T15:55:33.962Z,97816.50
2023-03-15T15:58:05.397Z,97822.72
2023-03-15T16:00:35.728Z,97817.84
2023-03-15T16:03:15.104Z,97815.91
2023-03-15T16:05:48.543Z,97827.03
2023-03-15T16:08:24.727Z,97830.16
2023-03-15T16:10:57.798Z,97838.22
2023-03-15T16:13:28.117Z,97845.50
2023-03-15T16:15:58.590Z,97842.00
2023-03-15T16:18:28.940Z,97853.56
2023-03-15T16:20:59.508Z,97859.69
2023-03-15T16:23:29.904Z,97864.22
2023-03-15T16:26:02.821Z,97865.19
2023-03-15T16:28:33.330Z,97872.09
2023-03-15T16:31:03.890Z,97869.25
2023-03-15T16:33:35.076Z,97879.13
2023-03-15T16:36:05.517Z,97874.94
2023-03-15T16:38:38.946Z,97877.47
2023-03-15T16:41:16.735Z,97886.34
2023-03-15T16:43:49.423Z,97889.78
2023-03-15T16:46:20.638Z,97901.13
2023-03-15T16:48:50.994Z,97901.63
2023-03-15T16:51:21.406Z,97905.06
2023-03-15T16:53:55.430Z,97908.69
2023-03-15T16:56:36.676Z,97905.06
2023-03-15T16:59:07.727Z,97920.22
2023-03-15T17:01:38.305Z,97924.63
2023-03-15T17:04:12.465Z,97930.88
2023-03-15T17:06:45.406Z,97934.38
2023-03-15T17:09:18.855Z,97931.91
2023-03-15T17:11:56.052Z,97936.78
2023-03-15T17:14:34.774Z,97937.66
2023-03-15T17:17:05.441Z,97944.78
2023-03-15T17:19:36.252Z,97949.13
2023-03-15T17:22:11.141Z,97952.47
2023-03-15T17:24:43.619Z,97958.97
2023-03-15T17:27:25.627Z,97967.22
2023-03-15T17:29:56.059Z,97977.84
2023-03-15T17:32:26.583Z,97982.63
2023-03-15T17:34:59.137Z,97987.69
2023-03-15T17:37:35.502Z,97992.03
2023-03-15T17:40:11.790Z,97998.00
2023-03-15T17:42:45.005Z,97993.56
2023-03-15T17:45:20.886Z,97998.59
2023-03-15T17:47:51.262Z,98002.75
2023-03-15T17:50:22.516Z,98003.41
2023-03-15T17:52:56.798Z,98009.31
2023-03-15T17:55:30.025Z,98011.91
2023-03-15T17:58:03.244Z,98016.44
2023-03-15T18:00:34.570Z,98016.75
2023-03-15T18:03:04.867Z,98019.72
2023-03-15T18:05:35.204Z,98022.88
2023-03-15T18:08:06.778Z,98025.19
2023-03-15T18:10:41.711Z,98029.25
2023-03-15T18:13:21.691Z,98032.56
2023-03-15T18:15:53.046Z,98038.38
2023-03-15T18:18:23.401Z,98037.97
2023-03-15T18:20:54.088Z,98039.16
2023-03-15T18:23:24.630Z,98039.91
2023-03-15T18:25:57.819Z,98035.63
2023-03-15T18:28:30.931Z,98039.31
2023-03-15T18:31:01.309Z,98037.00
2023-03-15T18:33:31.935Z,98033.59
2023-03-15T18:36:02.392Z,98045.06
2023-03-15T18:38:33.217Z,98038.88
2023-03-15T18:41:03.781Z,98052.72
2023-03-15T18:43:37.022Z,98040.97
2023-03-15T18:46:07.651Z,98043.34
2023-03-15T18:48:41.071Z,98045.53
2023-03-15T18:51:13.890Z,98047.84
2023-03-15T18:53:46.554Z,98053.34
2023-03-15T18:56:21.448Z,98061.06
2023-03-15T18:58:55.901Z,98062.97
2023-03-15T19:01:27.222Z,98070.13
2023-03-15T19:03:57.992Z,98066.03
2023-03-15T19:06:28.517Z,98068.03
2023-03-15T19:09:00.854Z,98075.78
2023-03-15T19:11:32.448Z,98076.22
2023-03-15T19:14:05.410Z,98084.34
2023-03-15T19:16:38.433Z,98085.25
2023-03-15T19:19:09.110Z,98090.91
2023-03-15T19:21:39.561Z,98092.47
2023-03-15T19:24:11.133Z,98092.09
2023-03-15T19:26:42.019Z,98096.03
2023-03-15T19:29:15.002Z,98092.94
2023-03-15T19:31:45.430Z,98097.84
2023-03-15T19:34:15.759Z,98098.81
2023-03-15T19:36:46.122Z,98093.75
2023-03-15T19:39:16.503Z,98101.25
2023-03-15T19:41:47.259Z,98109.09
2023-03-15T19:44:22.491Z,98110.22
2023-03-15T19:46:53.231Z,98117.97
2023-03-15T19:49:24.154Z,98116.81
2023-03-15T19:51:54.618Z,98131.66
2023-03-15T19:54:25.200Z,98126.97
2023-03-15T19:56:55.898Z,98128.53
2023-03-15T19:59:33.267Z,98137.53
2023-03-15T20:02:03.671Z,98140.25
2023-03-15T20:04:34.101Z,98142.63
2023-03-15T20:07:04.521Z,98138.81
2023-03-15T20:09:38.958Z,98146.06
2023-03-15T20:12:10.523Z,98145.75
2023-03-15T20:14:43.915Z,98156.31
2023-03-15T20:17:15.310Z,98150.91
2023-03-15T20:19:45.833Z,98150.53
2023-03-15T20:22:16.251Z,98149.34
2023-03-15T20:24:46.947Z,98143.59
2023-03-15T20:27:17.443Z,98155.75
2023-03-15T20:29:51.995Z,98165.19
2023-03-15T20:32:22.432Z,98172.22
2023-03-15T20:34:57.105Z,98176.94
2023-03-15T20:37:27.611Z,98170.34
2023-03-15T20:39:58.082Z,98182.06
2023-03-15T20:42:28.545Z,98180.91
2023-03-15T20:45:01.555Z,98185.25
2023-03-15T20:47:31.969Z,98182.84
2023-03-15T20:50:02.401Z,98182.13
2023-03-15T20:52:34.336Z,98186.44
2023-03-15T20:55:08.026Z,98180.19
2023-03-15T20:57:41.572Z,98183.31
2023-03-15T21:00:20.122Z,98185.59
2023-03-15T21:02:51.395Z,98183.38
2023-03-15T21:05:24.333Z,98188.13
2023-03-15T21:07:56.028Z,98190.84
2023-03-15T21:10:26.757Z,98202.91
2023-03-15T21:12:57.388Z,98203.63
2023-03-15T21:15:30.571Z,98200.63
2023-03-15T21:18:01.070Z,98202.63
2023-03-15T21:20:32.948Z,98196.78
2023-03-15T21:23:03.347Z,98196.00
2023-03-15T21:25:33.808Z,98197.16
2023-03-15T21:28:04.248Z,98202.69
2023-03-15T21:30:37.984Z,98208.59
2023-03-15T21:33:08.373Z,98205.13
2023-03-15T21:35:41.443Z,98213.34
2023-03-15T21:38:11.892Z,98203.19
2023-03-15T21:40:46.569Z,98208.28
2023-03-15T21:43:17.364Z,98212.53
2023-03-15T21:45:51.004Z,98214.06
2023-03-15T21:48:21.724Z,98216.47
2023-03-15T21:50:54.146Z,98229.69
2023-03-15T21:53:27.262Z,98220.00
2023-03-15T21:55:59.657Z,98231.31
2023-03-15T21:58:31.476Z,98228.56
2023-03-15T22:01:08.114Z,98232.88
2023-03-15T22:03:41.865Z,98241.78
2023-03-15T22:06:13.141Z,98239.41
2023-03-15T22:08:43.333Z,98231.25
2023-03-15T22:11:13.982Z,98236.75
2023-03-15T22:13:44.755Z,98237.22
2023-03-15T22:16:17.975Z,98241.56
2023-03-15T22:18:54.118Z,98236.16
2023-03-15T22:21:27.839Z,98240.94
2023-03-15T22:23:58.245Z,98243.28
2023-03-15T22:26:28.718Z,98246.78
2023-03-15T22:28:59.130Z,98255.03
2023-03-15T22:31:32.887Z,98259.41
2023-03-15T22:34:04.903Z,98255.63
2023-03-15T22:36:38.890Z,98256.44
2023-03-15T22:39:09.313Z,98261.53
2023-03-15T22:41:39.759Z,98259.22
2023-03-15T22:44:10.105Z,98254.91
2023-03-15T22:46:44.749Z,98264.16
2023-03-15T22:49:15.170Z,98264.09
2023-03-15T22:51:45.858Z,98255.81
2023-03-15T22:54:16.214Z,98267.06
2023-03-15T22:56:46.795Z,98261.19
2023-03-15T22:59:17.238Z,98263.94
2023-03-15T23:01:50.267Z,98265.16
2023-03-15T23:04:20.710Z,98258.88
2023-03-15T23:06:54.645Z,98266.69
2023-03-15T23:09:24.933Z,98268.97
2023-03-15T23:11:55.384Z,98259.28
2023-03-15T23:14:25.888Z,98268.03
2023-03-15T23:16:59.340Z,98271.56
2023-03-15T23:19:29.677Z,98272.34
2023-03-15T23:22:00.029Z,98275.84
2023-03-15T23:24:30.769Z,98274.25
2023-03-15T23:27:03.525Z,98280.50
2023-03-15T23:29:47.162Z,98282.09
2023-03-15T23:32:27.802Z,98286.03
2023-03-15T23:34:58.177Z,98287.25
2023-03-15T23:37:28.765Z,98299.31
2023-03-15T23:39:59.172Z,98291.56
2023-03-15T23:42:32.703Z,98291.97
2023-03-15T23:45:03.071Z,98296.66
2023-03-15T23:47:35.992Z,98299.03
2023-03-15T23:50:06.750Z,98293.50
2023-03-15T23:52:37.603Z,98302.47
2023-03-15T23:55:09.281Z,98294.31
2023-03-15T23:57:39.688Z,98302.13
